Time;durP1;ratioP1;P1;durP2;ratioP2;P2;SDS_P1;SDS_P2;PMS_P1;PMS_P2;Temp;Humidity;BMP_temperature;BMP_pressure;BME280_temperature;BME280_humidity;BME280_pressure;Samples;Min_cycle;Max_cycle;Signal;HPM_P1;HPM_P2
2021/12/14 00:00:45;;;;;;;25.33;18.33;;;8.30;99.90;;;;;;5039714;28;20045;-66
2021/12/14 00:03:12;;;;;;;30.35;19.63;;;8.30;99.90;;;;;;5056927;28;20048;-65
2021/12/14 00:05:40;;;;;;;25.98;18.65;;;8.30;99.90;;;;;;5056531;28;20053;-65
2021/12/14 00:08:07;;;;;;;28.42;19.50;;;8.30;99.90;;;;;;5023604;28;20408;-66
2021/12/14 00:16:11;;;;;;;29.15;19.10;;;8.40;99.90;;;;;;5026590;28;20072;-67
2021/12/14 00:18:38;;;;;;;24.20;17.50;;;8.40;99.90;;;;;;5039429;28;20052;-67
2021/12/14 00:21:20;;;;;;;30.55;19.40;;;8.30;99.90;;;;;;5039091;28;20047;-67
2021/12/14 00:24:08;;;;;;;24.55;18.05;;;8.30;99.90;;;;;;5056764;28;20469;-67
2021/12/14 00:26:49;;;;;;;23.75;17.25;;;8.30;99.90;;;;;;5056594;28;20045;-66
2021/12/14 00:29:22;;;;;;;27.55;18.00;;;8.30;99.90;;;;;;5056971;28;20041;-67
2021/12/14 00:31:50;;;;;;;25.67;16.85;;;8.40;99.90;;;;;;5038586;28;20053;-67
2021/12/14 00:34:23;;;;;;;22.02;17.38;;;8.30;99.90;;;;;;5056420;28;20048;-66
2021/12/14 00:36:50;;;;;;;23.73;17.33;;;8.40;99.90;;;;;;5039297;28;20064;-67
2021/12/14 00:39:16;;;;;;;22.65;16.77;;;8.40;99.90;;;;;;5039016;28;20067;-65
2021/12/14 00:41:42;;;;;;;23.92;16.15;;;8.30;99.90;;;;;;5056365;28;20049;-66
2021/12/14 00:44:10;;;;;;;22.35;16.63;;;8.30;99.90;;;;;;5039336;28;20037;-66
2021/12/14 00:46:36;;;;;;;24.98;17.13;;;8.40;99.90;;;;;;5056306;28;20063;-66
2021/12/14 00:49:04;;;;;;;23.52;16.25;;;8.30;99.90;;;;;;5056029;28;20045;-68
2021/12/14 00:51:30;;;;;;;23.60;16.35;;;8.30;99.90;;;;;;5038879;28;20045;-66
2021/12/14 00:53:59;;;;;;;25.83;16.90;;;8.30;99.90;;;;;;5038394;28;20526;-67
2021/12/14 00:56:25;;;;;;;24.60;16.30;;;8.30;99.90;;;;;;5039440;28;20416;-66
2021/12/14 00:58:51;;;;;;;23.75;16.73;;;8.30;99.90;;;;;;5039047;28;20049;-66
2021/12/14 01:01:24;;;;;;;22.95;17.63;;;8.40;99.90;;;;;;5038555;28;20151;-65
2021/12/14 01:03:52;;;;;;;;;;;8.30;99.90;;;;;;5056367;28;20071;-65
2021/12/14 01:06:19;;;;;;;21.55;16.33;;;8.30;99.90;;;;;;5055801;28;20002;-67
2021/12/14 01:08:47;;;;;;;23.40;17.67;;;8.30;99.90;;;;;;5056105;28;20053;-66
2021/12/14 01:11:32;;;;;;;22.40;16.55;;;8.30;99.90;;;;;;5056157;28;20381;-67
2021/12/14 01:14:06;;;;;;;25.23;16.20;;;8.30;99.90;;;;;;5055911;28;20083;-66
2021/12/14 01:17:06;;;;;;;22.48;16.02;;;8.30;99.90;;;;;;5055578;28;20056;-66
2021/12/14 01:19:33;;;;;;;23.45;15.73;;;8.30;99.90;;;;;;5055999;28;20053;-66
2021/12/14 01:22:24;;;;;;;22.98;16.98;;;8.30;99.90;;;;;;5038581;28;20045;-66
2021/12/14 01:27:33;;;;;;;24.52;16.60;;;8.30;99.90;;;;;;5055256;28;20496;-67
2021/12/14 01:30:04;;;;;;;22.70;16.75;;;8.30;99.90;;;;;;5055362;28;20049;-67
2021/12/14 01:32:33;;;;;;;25.85;16.85;;;8.30;99.90;;;;;;5178286;22;20017;-66
2021/12/14 01:34:58;;;;;;;23.90;16.98;;;8.30;99.90;;;;;;5058157;28;20048;-66
2021/12/14 01:37:28;;;;;;;26.25;17.13;;;8.30;99.90;;;;;;5057865;28;20090;-66
2021/12/14 01:40:06;;;;;;;23.30;16.80;;;8.20;99.90;;;;;;5058236;28;20058;-67
2021/12/14 01:42:40;;;;;;;25.83;17.45;;;8.20;99.90;;;;;;5041053;28;20495;-68
2021/12/14 01:45:13;;;;;;;24.95;17.42;;;8.20;99.90;;;;;;5057293;28;20102;-65
2021/12/14 01:47:55;;;;;;;25.38;17.95;;;8.20;99.90;;;;;;5075236;28;20044;-66
2021/12/14 01:50:43;;;;;;;27.35;17.42;;;8.30;99.90;;;;;;5074838;28;20052;-66
2021/12/14 01:53:11;;;;;;;24.33;17.90;;;8.20;99.90;;;;;;5057015;28;20093;-67
2021/12/14 01:55:40;;;;;;;25.05;18.70;;;8.30;99.90;;;;;;5057400;28;20048;-67
2021/12/14 01:58:08;;;;;;;23.90;17.27;;;8.30;99.90;;;;;;5057810;28;20055;-67
2021/12/14 02:00:43;;;;;;;25.98;17.70;;;8.30;99.90;;;;;;5074888;28;20377;-65
2021/12/14 02:03:12;;;;;;;25.10;18.52;;;8.30;99.90;;;;;;5057652;28;20052;-66
2021/12/14 02:05:45;;;;;;;24.05;18.17;;;8.30;99.90;;;;;;5040945;28;20044;-68
2021/12/14 02:08:21;;;;;;;27.45;18.73;;;8.30;99.90;;;;;;5074789;28;20048;-66
2021/12/14 02:10:48;;;;;;;28.38;18.60;;;8.30;99.90;;;;;;5057561;28;20052;-65
2021/12/14 02:13:22;;;;;;;29.17;20.33;;;8.30;99.90;;;;;;5074752;28;20040;-66
2021/12/14 02:15:48;;;;;;;33.70;19.13;;;8.30;99.90;;;;;;5057761;28;20052;-65
2021/12/14 02:18:18;;;;;;;27.80;19.45;;;8.30;99.90;;;;;;5057391;28;20059;-66
2021/12/14 02:20:54;;;;;;;29.27;20.20;;;8.30;99.90;;;;;;5057340;28;20373;-67
2021/12/14 02:23:20;;;;;;;32.28;20.23;;;8.30;99.90;;;;;;5057336;28;20052;-66
2021/12/14 02:25:47;;;;;;;32.13;21.05;;;8.30;99.90;;;;;;5057886;28;20132;-66
2021/12/14 02:28:16;;;;;;;29.45;20.13;;;8.30;99.90;;;;;;5057507;28;20059;-65
2021/12/14 02:30:43;;;;;;;27.60;20.13;;;8.30;99.90;;;;;;5074348;28;20083;-66
2021/12/14 02:33:21;;;;;;;30.38;21.00;;;8.30;99.90;;;;;;5056952;28;20427;-67
2021/12/14 02:35:49;;;;;;;29.48;21.20;;;8.30;99.90;;;;;;5057432;28;20117;-66
2021/12/14 02:38:17;;;;;;;31.35;21.85;;;8.30;99.90;;;;;;5056918;28;20067;-65
2021/12/14 02:40:57;;;;;;;30.83;22.35;;;8.30;99.90;;;;;;5057373;28;20048;-65
2021/12/14 02:43:49;;;;;;;35.65;22.42;;;8.30;99.90;;;;;;5074386;28;20047;-66
2021/12/14 02:46:25;;;;;;;33.70;22.98;;;8.30;99.90;;;;;;5074101;28;20052;-66
2021/12/14 02:48:54;;;;;;;35.00;22.15;;;8.30;99.90;;;;;;5057071;28;20106;-67
2021/12/14 02:51:33;;;;;;;31.80;21.10;;;8.30;99.90;;;;;;5074304;28;20049;-66
2021/12/14 02:54:23;;;;;;;32.63;21.70;;;8.30;99.90;;;;;;5056761;28;20049;-67
2021/12/14 02:56:51;;;;;;;37.17;23.52;;;8.30;99.90;;;;;;5077908;28;20036;-66
2021/12/14 02:59:21;;;;;;;32.72;23.30;;;8.30;99.90;;;;;;5061663;28;20353;-66
2021/12/14 03:01:49;;;;;;;35.95;24.13;;;8.30;99.90;;;;;;5061487;28;20048;-67
2021/12/14 03:04:15;;;;;;;32.83;22.88;;;8.30;99.90;;;;;;5060849;28;20082;-66
2021/12/14 03:06:47;;;;;;;33.20;23.05;;;8.20;99.90;;;;;;5044057;28;20123;-67
2021/12/14 03:09:32;;;;;;;35.05;23.88;;;8.20;99.90;;;;;;5043722;28;20473;-66
2021/12/14 03:12:04;;;;;;;37.67;23.67;;;8.20;99.90;;;;;;5046881;28;20145;-66
2021/12/14 03:14:29;;;;;;;33.95;24.52;;;8.10;99.90;;;;;;5060827;28;20048;-67
2021/12/14 03:16:55;;;;;;;35.85;24.42;;;8.10;99.90;;;;;;5060780;28;20350;-67
2021/12/14 03:19:21;;;;;;;39.58;24.50;;;8.10;99.90;;;;;;5077925;28;20045;-65
2021/12/14 03:21:48;;;;;;;34.45;24.27;;;8.10;99.90;;;;;;5077754;28;20495;-65
2021/12/14 03:24:18;;;;;;;40.88;25.33;;;8.10;99.90;;;;;;5044194;28;20048;-66
2021/12/14 03:26:47;;;;;;;36.53;23.98;;;8.00;99.90;;;;;;5061118;28;20055;-67
2021/12/14 03:29:20;;;;;;;35.50;24.90;;;8.00;99.90;;;;;;5077670;28;20052;-67
2021/12/14 03:31:49;;;;;;;37.92;24.83;;;8.00;99.90;;;;;;5077698;28;20132;-67
2021/12/14 03:34:23;;;;;;;36.78;25.23;;;8.00;99.90;;;;;;5078184;28;20334;-67
2021/12/14 03:36:54;;;;;;;43.40;26.17;;;8.00;99.90;;;;;;5060491;28;20128;-66
2021/12/14 03:39:33;;;;;;;40.10;24.92;;;8.00;99.90;;;;;;5077602;28;20044;-66
2021/12/14 03:42:13;;;;;;;37.00;25.85;;;8.00;99.90;;;;;;5059735;28;20052;-68
2021/12/14 03:44:46;;;;;;;37.42;24.60;;;8.00;99.90;;;;;;5077528;28;20354;-68
2021/12/14 03:47:17;;;;;;;42.35;26.85;;;8.10;99.90;;;;;;5077355;28;20056;-65
2021/12/14 03:50:09;;;;;;;38.70;27.27;;;8.00;99.90;;;;;;5060113;28;20044;-66
2021/12/14 03:52:38;;;;;;;45.83;25.25;;;8.10;99.90;;;;;;5039033;28;20133;-65
2021/12/14 03:55:17;;;;;;;42.15;25.52;;;8.10;99.90;;;;;;5059898;28;20399;-65
2021/12/14 03:57:44;;;;;;;36.83;26.67;;;8.10;99.90;;;;;;5059686;28;20048;-67
2021/12/14 04:00:22;;;;;;;39.83;27.08;;;8.10;99.90;;;;;;5059645;28;20064;-67
2021/12/14 04:02:51;;;;;;;43.13;27.80;;;8.10;99.90;;;;;;5076977;28;20052;-68
2021/12/14 04:05:17;;;;;;;40.03;26.27;;;8.10;99.90;;;;;;5077220;28;20350;-66
2021/12/14 04:07:44;;;;;;;41.05;27.95;;;8.10;99.90;;;;;;5041826;28;20403;-66
2021/12/14 04:10:17;;;;;;;43.78;28.17;;;8.10;99.90;;;;;;5077518;28;20361;-68
2021/12/14 04:12:43;;;;;;;40.15;27.15;;;8.10;99.90;;;;;;5059502;28;20201;-65
2021/12/14 04:15:09;;;;;;;43.17;28.02;;;8.10;99.90;;;;;;5059674;28;20053;-66
2021/12/14 04:17:35;;;;;;;43.45;28.92;;;8.10;99.90;;;;;;5043039;28;20059;-67
2021/12/14 04:20:08;;;;;;;42.92;27.75;;;8.10;99.90;;;;;;5059335;28;20041;-66
2021/12/14 04:22:33;;;;;;;50.17;28.13;;;8.10;99.90;;;;;;5077226;28;20416;-65
2021/12/14 04:25:03;;;;;;;49.25;28.45;;;8.10;99.90;;;;;;5059704;28;20051;-67
2021/12/14 04:27:31;;;;;;;42.17;26.40;;;8.10;99.90;;;;;;5058904;28;20464;-65
2021/12/14 04:30:02;;;;;;;44.95;27.95;;;8.00;99.90;;;;;;5076496;28;20366;-67
2021/12/14 04:32:27;;;;;;;45.05;28.95;;;8.00;99.90;;;;;;5058646;28;20049;-65
2021/12/14 04:34:55;;;;;;;42.35;27.70;;;8.00;99.90;;;;;;5058889;28;20465;-66
2021/12/14 04:37:21;;;;;;;46.13;27.83;;;8.00;99.90;;;;;;5059357;28;20063;-66
2021/12/14 04:39:56;;;;;;;43.00;28.02;;;8.00;99.90;;;;;;5059069;28;20468;-67
2021/12/14 04:53:50;;;;;;;47.22;28.63;;;8.10;99.90;;;;;;5058554;28;20487;-66
2021/12/14 04:56:29;;;;;;;41.00;27.40;;;8.10;99.90;;;;;;5059023;28;20059;-67
2021/12/14 04:58:59;;;;;;;45.60;28.90;;;8.10;99.90;;;;;;5076272;28;20060;-66
2021/12/14 05:01:25;;;;;;;47.25;28.95;;;8.20;99.90;;;;;;5076054;28;20149;-65
2021/12/14 05:03:56;;;;;;;42.47;27.05;;;8.10;99.90;;;;;;5041646;28;20049;-65
2021/12/14 05:06:25;;;;;;;44.00;28.30;;;8.20;99.90;;;;;;5051665;28;20417;-68
2021/12/14 05:11:54;;;;;;;45.58;28.52;;;8.20;99.90;;;;;;5069779;28;20369;-66
2021/12/14 05:14:20;;;;;;;45.33;28.13;;;8.20;99.90;;;;;;5076018;28;20084;-67
2021/12/14 05:16:46;;;;;;;45.40;28.95;;;8.20;99.90;;;;;;5075644;28;20067;-66
2021/12/14 05:19:13;;;;;;;45.78;28.55;;;8.20;99.90;;;;;;5075753;28;20051;-65
2021/12/14 05:21:47;;;;;;;42.15;27.90;;;8.20;99.90;;;;;;5076140;28;20053;-68
2021/12/14 05:24:16;;;;;;;46.95;29.48;;;8.20;99.90;;;;;;5050631;28;20071;-66
2021/12/14 05:26:43;;;;;;;49.25;29.35;;;8.20;99.90;;;;;;5055487;28;20056;-65
2021/12/14 05:29:10;;;;;;;48.25;28.73;;;8.20;99.90;;;;;;5055882;28;20052;-65
2021/12/14 05:31:49;;;;;;;47.10;30.00;;;8.20;99.90;;;;;;5055040;28;20487;-65
2021/12/14 05:34:16;;;;;;;48.90;30.20;;;8.20;99.90;;;;;;5055492;28;20412;-67
2021/12/14 05:36:44;;;;;;;47.22;30.65;;;8.20;99.90;;;;;;5038227;28;20061;-66
2021/12/14 05:44:44;;;;;;;54.97;31.90;;;8.20;99.90;;;;;;5055686;28;20409;-66
2021/12/14 05:47:16;;;;;;;49.70;30.35;;;8.20;99.90;;;;;;5037564;28;20049;-67
2021/12/14 05:49:44;;;;;;;52.58;31.27;;;8.20;99.90;;;;;;5037785;28;20098;-65
2021/12/14 05:52:28;;;;;;;52.90;32.22;;;8.20;99.90;;;;;;5037431;28;20120;-66
2021/12/14 05:54:56;;;;;;;53.00;31.63;;;8.10;99.90;;;;;;5054942;28;20056;-65
2021/12/14 05:57:25;;;;;;;50.08;32.40;;;8.10;99.90;;;;;;5037609;28;20045;-65
2021/12/14 05:59:51;;;;;;;54.55;31.92;;;8.10;99.90;;;;;;5046424;28;20090;-65
2021/12/14 06:02:19;;;;;;;51.47;32.28;;;8.10;99.90;;;;;;5074286;28;20376;-68
2021/12/14 06:04:50;;;;;;;56.13;32.15;;;8.10;99.90;;;;;;5075176;28;20076;-66
2021/12/14 06:07:17;;;;;;;53.97;32.35;;;8.20;99.90;;;;;;5057158;28;20045;-67
2021/12/14 06:09:46;;;;;;;53.72;32.25;;;8.10;99.90;;;;;;5057343;28;20059;-65
2021/12/14 06:12:17;;;;;;;58.10;33.03;;;8.10;99.90;;;;;;5074965;28;20047;-66
2021/12/14 06:14:51;;;;;;;56.35;31.88;;;8.10;99.90;;;;;;5074694;28;20539;-66
2021/12/14 06:17:29;;;;;;;50.92;32.75;;;8.20;99.90;;;;;;5056869;28;20408;-65
2021/12/14 06:20:09;;;;;;;55.58;33.22;;;8.10;99.90;;;;;;5074751;28;20052;-67
2021/12/14 06:22:37;;;;;;;60.50;34.28;;;8.20;99.90;;;;;;5074729;28;20044;-66
2021/12/14 06:25:11;;;;;;;57.17;32.75;;;8.10;99.90;;;;;;5047032;28;20064;-67
2021/12/14 06:27:37;;;;;;;64.95;33.72;;;8.10;99.90;;;;;;5040697;28;20044;-67
2021/12/14 06:30:12;;;;;;;59.95;34.47;;;8.10;99.90;;;;;;5073053;28;20051;-67
2021/12/14 06:32:44;;;;;;;56.63;33.00;;;8.10;99.90;;;;;;5072931;28;20061;-67
2021/12/14 06:35:20;;;;;;;58.80;34.63;;;8.20;99.90;;;;;;5066147;28;20381;-66
2021/12/14 06:38:26;;;;;;;52.00;33.20;;;8.10;99.90;;;;;;5074388;28;20141;-67
2021/12/14 06:41:11;;;;;;;60.88;35.40;;;8.10;99.90;;;;;;5056244;28;20048;-67
2021/12/14 06:43:43;;;;;;;56.65;34.60;;;8.10;99.90;;;;;;5074006;28;20056;-67
2021/12/14 06:46:18;;;;;;;54.50;32.70;;;8.20;99.90;;;;;;5074166;28;20370;-68
2021/12/14 06:48:50;;;;;;;58.63;33.70;;;8.10;99.90;;;;;;5073112;28;20517;-66
2021/12/14 06:51:21;;;;;;;53.88;34.35;;;8.10;99.90;;;;;;5056818;28;20067;-67
2021/12/14 06:53:49;;;;;;;55.10;33.53;;;8.20;99.90;;;;;;5056989;28;20049;-66
2021/12/14 06:56:19;;;;;;;53.35;33.67;;;8.20;99.90;;;;;;5064817;28;20067;-67
2021/12/14 06:58:57;;;;;;;60.50;35.22;;;8.20;99.90;;;;;;5039787;28;20063;-67
2021/12/14 07:01:45;;;;;;;56.42;35.67;;;8.20;99.90;;;;;;5073751;28;20040;-66
2021/12/14 07:04:16;;;;;;;60.58;35.55;;;8.20;99.90;;;;;;5061676;28;20121;-66
2021/12/14 07:06:46;;;;;;;60.67;36.40;;;8.20;99.90;;;;;;5073245;28;20029;-64
2021/12/14 07:09:24;;;;;;;62.20;35.33;;;8.20;99.90;;;;;;5039749;28;20048;-66
2021/12/14 07:12:14;;;;;;;64.32;36.70;;;8.20;99.90;;;;;;5056133;28;20119;-68
2021/12/14 07:15:12;;;;;;;67.03;37.70;;;8.20;99.90;;;;;;5056760;28;20524;-67
2021/12/14 07:17:43;;;;;;;66.68;38.78;;;8.20;99.90;;;;;;5073657;28;20476;-66
2021/12/14 07:20:11;;;;;;;70.93;38.33;;;8.10;99.90;;;;;;5073589;28;20044;-68
2021/12/14 07:22:41;;;;;;;62.95;37.65;;;8.10;99.90;;;;;;5074048;28;20090;-67
2021/12/14 07:25:23;;;;;;;65.60;39.15;;;8.10;99.90;;;;;;5065271;28;20426;-69
2021/12/14 07:27:57;;;;;;;71.82;38.92;;;8.10;99.90;;;;;;5068783;28;20052;-67
2021/12/14 07:30:46;;;;;;;67.78;39.03;;;8.10;99.90;;;;;;5073208;28;20048;-68
2021/12/14 07:33:17;;;;;;;68.60;39.20;;;8.10;99.90;;;;;;5073414;28;20354;-67
2021/12/14 07:36:01;;;;;;;71.10;39.08;;;8.10;99.90;;;;;;5056495;28;20067;-66
2021/12/14 07:38:49;;;;;;;69.55;38.50;;;8.20;99.90;;;;;;5073185;28;20080;-66
2021/12/14 07:41:31;;;;;;;75.60;40.55;;;8.10;99.90;;;;;;5073319;28;20052;-66
2021/12/14 07:44:18;;;;;;;78.97;41.78;;;8.10;99.90;;;;;;5077605;28;20090;-67
2021/12/14 07:46:47;;;;;;;84.38;42.85;;;8.10;99.90;;;;;;5077019;28;20488;-66
2021/12/14 07:49:42;;;;;;;80.88;41.45;;;8.10;99.90;;;;;;5059599;28;20464;-67
2021/12/14 07:52:08;;;;;;;85.45;42.47;;;8.10;99.90;;;;;;5076934;28;20051;-68
2021/12/14 07:54:42;;;;;;;76.88;40.00;;;8.10;99.90;;;;;;5055684;28;20049;-67
2021/12/14 07:57:13;;;;;;;;;;;8.10;99.90;;;;;;5047887;28;20518;-66
2021/12/14 07:59:43;;;;;;;74.80;39.90;;;8.10;99.90;;;;;;5058196;28;19932;-65
2021/12/14 08:02:19;;;;;;;83.50;42.28;;;8.10;99.90;;;;;;5052685;28;20040;-67
2021/12/14 08:04:52;;;;;;;79.75;42.15;;;8.20;99.90;;;;;;5064827;28;20384;-67
2021/12/14 08:07:31;;;;;;;80.35;41.72;;;8.20;99.90;;;;;;5057368;28;20468;-67
2021/12/14 08:10:06;;;;;;;84.20;42.25;;;8.20;99.90;;;;;;5081179;28;20143;-66
2021/12/14 08:12:35;;;;;;;86.18;43.58;;;8.20;99.90;;;;;;5078822;28;20067;-66
2021/12/14 08:15:29;;;;;;;79.20;41.67;;;8.20;99.90;;;;;;5059252;28;20044;-67
2021/12/14 08:18:05;;;;;;;82.78;43.78;;;8.20;99.90;;;;;;5055368;28;20059;-66
2021/12/14 08:20:32;;;;;;;89.25;43.28;;;8.20;99.90;;;;;;5058320;28;20119;-66
2021/12/14 08:23:16;;;;;;;93.82;43.00;;;8.30;99.90;;;;;;5076423;28;20166;-65
2021/12/14 08:25:42;;;;;;;85.90;42.72;;;8.30;99.90;;;;;;5069953;28;20048;-67
2021/12/14 08:28:08;;;;;;;83.15;42.63;;;8.30;99.90;;;;;;5058593;28;20040;-66
2021/12/14 08:30:38;;;;;;;89.72;42.65;;;8.30;99.90;;;;;;5058152;28;20057;-68
2021/12/14 08:33:04;;;;;;;84.43;42.58;;;8.30;99.90;;;;;;5076053;28;20053;-65
2021/12/14 08:35:30;;;;;;;91.93;44.15;;;8.30;99.90;;;;;;5075825;28;20078;-67
2021/12/14 08:38:02;;;;;;;84.65;42.28;;;8.30;99.90;;;;;;5076420;28;20203;-65
2021/12/14 08:40:43;;;;;;;96.10;43.10;;;8.30;99.90;;;;;;5075551;28;20094;-65
2021/12/14 08:43:13;;;;;;;89.18;42.58;;;8.30;99.90;;;;;;5057966;28;20084;-67
2021/12/14 08:46:07;;;;;;;97.45;44.35;;;8.30;99.90;;;;;;5076011;28;20047;-68
2021/12/14 08:48:35;;;;;;;;;;;8.40;99.90;;;;;;5073577;28;20476;-65
2021/12/14 08:51:15;;;;;;;100.70;43.95;;;8.40;99.90;;;;;;5057790;28;19975;-67
2021/12/14 08:53:56;;;;;;;87.90;43.17;;;8.40;99.90;;;;;;5056538;28;20093;-66
2021/12/14 08:56:24;;;;;;;100.85;44.80;;;8.40;99.90;;;;;;5075825;28;20155;-67
2021/12/14 08:58:51;;;;;;;94.75;42.38;;;8.40;99.90;;;;;;5075479;28;20067;-66
2021/12/14 09:01:22;;;;;;;94.22;43.75;;;8.40;99.90;;;;;;5075963;28;20504;-68
2021/12/14 09:03:54;;;;;;;86.72;41.63;;;8.60;99.90;;;;;;5075671;28;20041;-67
2021/12/14 09:06:23;;;;;;;85.50;43.08;;;8.50;99.90;;;;;;5057880;28;20404;-67
2021/12/14 09:08:50;;;;;;;87.80;43.95;;;8.50;99.90;;;;;;5074794;28;20116;-65
2021/12/14 09:11:21;;;;;;;84.95;43.72;;;8.50;99.90;;;;;;5075868;28;20376;-67
2021/12/14 09:13:48;;;;;;;99.47;44.17;;;8.50;99.90;;;;;;5058118;28;20049;-66
2021/12/14 09:16:17;;;;;;;96.38;43.42;;;8.50;99.90;;;;;;5056898;28;20041;-67
2021/12/14 09:18:52;;;;;;;98.55;45.33;;;8.50;99.90;;;;;;5053836;28;20072;-66
2021/12/14 09:21:29;;;;;;;95.43;43.28;;;8.50;99.90;;;;;;5053456;28;20085;-65
2021/12/14 09:23:59;;;;;;;87.15;43.10;;;8.50;99.90;;;;;;5074160;28;20040;-66
2021/12/14 09:26:29;;;;;;;93.85;43.92;;;8.50;99.90;;;;;;5053589;28;20131;-67
2021/12/14 09:28:54;;;;;;;84.05;44.70;;;8.60;99.90;;;;;;5057257;28;20076;-66
2021/12/14 09:31:26;;;;;;;86.07;43.03;;;8.60;99.90;;;;;;5075163;28;20044;-67
2021/12/14 09:33:55;;;;;;;81.80;42.97;;;8.60;99.90;;;;;;5075447;28;20186;-68
2021/12/14 09:36:21;;;;;;;84.95;45.13;;;8.70;99.90;;;;;;5058288;28;20127;-67
2021/12/14 09:38:52;;;;;;;82.32;43.80;;;8.70;99.90;;;;;;5065032;28;20414;-68
2021/12/14 09:41:21;;;;;;;83.85;44.05;;;8.70;99.90;;;;;;5037663;28;20053;-67
2021/12/14 09:43:48;;;;;;;86.15;45.55;;;8.70;99.90;;;;;;5055272;28;20072;-68
2021/12/14 09:46:15;;;;;;;81.45;43.25;;;8.80;99.90;;;;;;5055504;28;20041;-68
2021/12/14 09:48:46;;;;;;;98.05;46.33;;;8.80;99.90;;;;;;5055490;28;20120;-66
2021/12/14 09:51:20;;;;;;;80.13;42.60;;;8.80;99.90;;;;;;5037694;28;20052;-68
2021/12/14 09:53:50;;;;;;;85.78;44.08;;;8.80;99.90;;;;;;5037914;28;20118;-66
2021/12/14 09:56:19;;;;;;;86.50;44.60;;;8.80;99.90;;;;;;5037491;28;20056;-68
2021/12/14 09:58:51;;;;;;;85.65;44.03;;;8.90;99.90;;;;;;5054896;28;20049;-68
2021/12/14 10:01:23;;;;;;;82.68;42.88;;;8.90;99.90;;;;;;5054803;28;20049;-66
2021/12/14 10:03:53;;;;;;;76.05;42.13;;;8.90;99.90;;;;;;5036979;28;20537;-67
2021/12/14 10:06:24;;;;;;;80.57;42.80;;;8.90;99.90;;;;;;5037112;28;20099;-68
2021/12/14 10:08:58;;;;;;;81.68;43.97;;;8.90;99.90;;;;;;5063481;28;20139;-67
2021/12/14 10:11:43;;;;;;;82.95;42.42;;;8.90;99.90;;;;;;5074969;28;20040;-66
2021/12/14 10:14:11;;;;;;;76.07;41.72;;;9.10;99.90;;;;;;5057370;28;20040;-67
2021/12/14 10:16:37;;;;;;;75.85;41.17;;;8.90;99.90;;;;;;5057735;28;20056;-66
2021/12/14 10:19:08;;;;;;;77.68;41.10;;;8.90;99.90;;;;;;5074625;28;20516;-67
2021/12/14 10:21:43;;;;;;;73.68;41.00;;;8.90;99.90;;;;;;5057899;28;20063;-66
2021/12/14 10:24:09;;;;;;;66.82;38.40;;;9.00;99.90;;;;;;5057168;28;20084;-66
2021/12/14 10:26:43;;;;;;;76.65;40.75;;;9.00;99.90;;;;;;5057209;28;20052;-68
2021/12/14 10:29:10;;;;;;;77.03;39.85;;;9.00;99.90;;;;;;5057323;28;20445;-66
2021/12/14 10:31:51;;;;;;;77.90;40.53;;;9.00;99.90;;;;;;5074533;28;20044;-67
2021/12/14 10:34:24;;;;;;;78.78;41.15;;;9.00;99.90;;;;;;5057206;28;20060;-68
2021/12/14 10:37:02;;;;;;;68.80;37.53;;;8.90;99.90;;;;;;5075035;28;20061;-68
2021/12/14 10:45:11;;;;;;;76.63;40.10;;;8.90;99.90;;;;;;4996071;28;20073;-67
2021/12/14 10:47:37;;;;;;;77.50;39.78;;;9.00;99.90;;;;;;5032390;28;20377;-67
2021/12/14 10:50:08;;;;;;;74.60;40.28;;;9.00;99.90;;;;;;5037449;28;20041;-68
2021/12/14 10:52:40;;;;;;;69.05;38.90;;;9.00;99.90;;;;;;5036881;28;20045;-66
2021/12/14 10:55:14;;;;;;;71.38;39.53;;;9.00;99.90;;;;;;5054058;28;20049;-68
2021/12/14 10:57:40;;;;;;;71.38;38.58;;;9.00;99.90;;;;;;5054744;28;20053;-67
2021/12/14 11:00:12;;;;;;;67.50;37.90;;;9.00;99.90;;;;;;5036876;28;20445;-68
2021/12/14 11:02:41;;;;;;;69.45;38.47;;;9.00;99.90;;;;;;5037136;28;20052;-67
2021/12/14 11:05:15;;;;;;;79.10;38.13;;;9.00;99.90;;;;;;5054204;28;20048;-67
2021/12/14 11:07:45;;;;;;;71.70;38.80;;;9.00;99.90;;;;;;5021809;28;20073;-67
2021/12/14 11:10:34;;;;;;;64.95;37.97;;;9.00;99.90;;;;;;5057078;28;20044;-67
2021/12/14 11:13:05;;;;;;;65.35;36.20;;;9.10;99.90;;;;;;5074051;28;20126;-69
2021/12/14 11:15:36;;;;;;;63.08;34.92;;;9.10;99.90;;;;;;5075273;28;20072;-67
2021/12/14 11:18:11;;;;;;;60.33;34.70;;;9.10;99.90;;;;;;5060353;28;20166;-69
2021/12/14 11:20:42;;;;;;;64.65;35.92;;;9.10;99.90;;;;;;5078185;28;20348;-69
2021/12/14 11:23:23;;;;;;;58.28;33.20;;;9.10;99.90;;;;;;5078154;28;20044;-65
2021/12/14 11:25:49;;;;;;;52.50;32.20;;;9.10;99.90;;;;;;5060211;28;20070;-67
2021/12/14 11:28:31;;;;;;;54.00;32.60;;;9.20;99.90;;;;;;5060624;28;20040;-67
2021/12/14 11:31:10;;;;;;;53.10;32.20;;;9.20;99.90;;;;;;5060497;28;20435;-67
2021/12/14 11:33:45;;;;;;;55.67;31.85;;;9.20;99.90;;;;;;5060168;28;20068;-67
2021/12/14 11:36:24;;;;;;;61.90;33.70;;;9.20;99.90;;;;;;5060174;28;20048;-66
2021/12/14 11:38:58;;;;;;;61.63;33.83;;;9.20;99.90;;;;;;5077006;28;20041;-65
2021/12/14 11:41:50;;;;;;;61.38;32.83;;;9.20;99.90;;;;;;5060444;28;20546;-67
2021/12/14 11:44:28;;;;;;;58.03;33.15;;;9.20;99.90;;;;;;5059867;28;20114;-66
2021/12/14 11:50:04;;;;;;;60.45;32.70;;;9.20;99.90;;;;;;5059696;28;20457;-68
2021/12/14 11:52:50;;;;;;;65.20;32.05;;;9.20;99.90;;;;;;5077524;28;20048;-66
2021/12/14 11:55:29;;;;;;;59.58;32.92;;;9.20;99.90;;;;;;5077473;28;20453;-67
2021/12/14 11:58:26;;;;;;;54.78;31.80;;;9.20;99.90;;;;;;5060017;28;20151;-68
2021/12/14 12:01:04;;;;;;;61.38;31.98;;;9.20;99.90;;;;;;5060137;28;20139;-65
2021/12/14 12:03:37;;;;;;;58.67;32.28;;;9.20;99.90;;;;;;5077403;28;20048;-66
2021/12/14 12:06:09;;;;;;;57.88;31.35;;;9.20;99.90;;;;;;5077084;28;20048;-68
2021/12/14 12:11:36;;;;;;;63.55;31.33;;;9.20;99.90;;;;;;5058950;28;20146;-67
2021/12/14 12:14:16;;;;;;;59.03;31.77;;;9.20;99.90;;;;;;5076852;28;20346;-66
2021/12/14 12:16:42;;;;;;;54.65;31.50;;;9.20;99.90;;;;;;5059148;28;20070;-68
2021/12/14 12:19:13;;;;;;;60.05;32.88;;;9.20;99.90;;;;;;5076942;28;20127;-67
2021/12/14 12:21:41;;;;;;;59.75;32.42;;;9.20;99.90;;;;;;5059220;28;20059;-68
2021/12/14 12:24:34;;;;;;;56.95;30.13;;;9.20;99.90;;;;;;5077236;28;20048;-66
2021/12/14 12:27:30;;;;;;;64.70;31.60;;;9.20;99.90;;;;;;5058855;28;20049;-67
2021/12/14 12:30:39;;;;;;;59.97;30.52;;;9.20;99.90;;;;;;5059356;28;20086;-67
2021/12/14 12:33:26;;;;;;;63.80;31.73;;;9.20;99.90;;;;;;5058912;28;20052;-67
2021/12/14 12:36:21;;;;;;;55.45;30.45;;;9.20;99.90;;;;;;5076674;28;20048;-68
2021/12/14 12:38:50;;;;;;;52.10;28.70;;;9.20;99.90;;;;;;5076175;28;20051;-66
2021/12/14 12:41:41;;;;;;;61.13;29.42;;;9.20;99.90;;;;;;5076560;28;20048;-68
2021/12/14 12:44:09;;;;;;;68.80;31.25;;;9.20;99.90;;;;;;5059196;28;20128;-66
2021/12/14 12:46:38;;;;;;;56.55;30.75;;;9.20;99.90;;;;;;5076550;28;20399;-66
2021/12/14 12:49:15;;;;;;;71.47;32.13;;;9.20;99.90;;;;;;5076499;28;20139;-67
2021/12/14 12:52:07;;;;;;;80.43;32.63;;;9.30;99.90;;;;;;5076606;28;20437;-66
2021/12/14 12:54:40;;;;;;;58.63;30.23;;;9.30;99.90;;;;;;5058291;28;20057;-67
2021/12/14 12:57:42;;;;;;;71.68;31.50;;;9.30;99.90;;;;;;5058670;28;20040;-66
2021/12/14 13:00:16;;;;;;;74.22;32.08;;;9.30;99.90;;;;;;5058885;28;20052;-67
2021/12/14 13:03:00;;;;;;;78.88;32.63;;;9.30;99.90;;;;;;5059119;28;20055;-67
2021/12/14 13:05:47;;;;;;;77.05;30.92;;;9.30;99.90;;;;;;5076214;28;20056;-66
2021/12/14 13:08:22;;;;;;;62.92;29.67;;;9.30;99.90;;;;;;5053876;28;20525;-67
2021/12/14 13:10:50;;;;;;;64.57;29.65;;;9.30;99.90;;;;;;5056292;28;20140;-67
2021/12/14 13:13:24;;;;;;;73.40;30.40;;;9.30;99.90;;;;;;5058461;28;20076;-68
2021/12/14 13:16:02;;;;;;;63.15;29.85;;;9.40;99.90;;;;;;5058163;28;20132;-66
2021/12/14 13:18:45;;;;;;;69.38;30.52;;;9.40;99.90;;;;;;5058141;28;20071;-67
2021/12/14 13:21:25;;;;;;;59.45;29.58;;;9.40;99.90;;;;;;5075823;28;20099;-66
2021/12/14 13:24:12;;;;;;;60.30;29.23;;;9.40;99.90;;;;;;5058385;28;20102;-67
2021/12/14 13:26:53;;;;;;;57.20;28.38;;;9.40;99.90;;;;;;5076029;28;20076;-68
2021/12/14 13:29:45;;;;;;;76.68;29.55;;;9.40;99.90;;;;;;5037993;28;20123;-67
2021/12/14 13:32:16;;;;;;;67.97;28.83;;;9.40;99.90;;;;;;5054855;28;20130;-67
2021/12/14 13:34:48;;;;;;;67.03;28.08;;;9.40;99.90;;;;;;5021794;28;20110;-68
2021/12/14 13:37:24;;;;;;;53.85;26.50;;;9.40;99.90;;;;;;5055692;28;20052;-67
2021/12/14 13:39:51;;;;;;;65.95;28.13;;;9.40;99.90;;;;;;5055429;28;20381;-67
2021/12/14 13:42:28;;;;;;;57.28;27.35;;;9.40;99.90;;;;;;5038081;28;20167;-67
2021/12/14 13:44:54;;;;;;;61.65;28.48;;;9.40;99.90;;;;;;5054836;28;20127;-68
2021/12/14 13:47:25;;;;;;;60.22;27.45;;;9.40;99.90;;;;;;5037514;28;20056;-68
2021/12/14 13:49:51;;;;;;;57.83;26.33;;;9.40;99.90;;;;;;5037820;28;20056;-68